フィレンツェ の空港の天気 - METARとTAF

フィレンツェ・ペレトラ空港 ( LIRQ / FLR ) - イタリア フィレンツェ
飛行場実況気象(Metar)
観測時間07/02 14:20 CEST (07/02 12:20 UTC)
風向・風速西 4m/s
視程10km以上
天気現象
少しの雲 雲底高度 910m
気温33℃
湿度44%
気圧1010hPa
METARLIRQ 021220Z 27007KT 220V320 9999 FEW030 33/19 Q1010
過去の天気等 Google飛行場航空写真 Wunderground天気予報

過去48時間のMETAR

飛行場予報(TAF)
発表時間: 7/02 13:00 CEST (7/02 11:00 UTC)
予報対象時間: 2日14時 CEST ~ 3日14時 CEST
風向・風速西南西 5m/s
視程10km以上
全天の4割程度の雲 雲底高度 760m
2日18時 CEST ~ 2日20時 CEST に徐々に
風向・風速不定 3m/s
3日12時 CEST ~ 3日14時 CEST に徐々に
風向・風速西南西 5m/s
TAF LIRQ 021100Z 0212/0312 24010KT 9999 SCT025
BECMG 0216/0218 VRB05KT
BECMG 0310/0312 24010KT